Time;durP1;ratioP1;P1;durP2;ratioP2;P2;SDS_P1;SDS_P2;PMS_P1;PMS_P2;Temp;Humidity;BMP_temperature;BMP_pressure;BME280_temperature;BME280_humidity;BME280_pressure;Samples;Min_cycle;Max_cycle;Signal;HPM_P1;HPM_P2
2022/10/19 00:00:49;;;;;;;4.03;1.70;;;11.10;99.90;;;;;;5054762;28;20060;-80
2022/10/19 00:03:15;;;;;;;4.15;1.58;;;11.20;99.90;;;;;;5053239;28;20113;-80
2022/10/19 00:05:41;;;;;;;4.78;2.28;;;11.20;99.90;;;;;;5054539;28;20477;-79
2022/10/19 00:08:07;;;;;;;2.55;2.00;;;11.20;99.90;;;;;;5054834;28;20156;-80
2022/10/19 00:10:33;;;;;;;5.32;2.78;;;11.20;99.90;;;;;;5054420;28;20048;-80
2022/10/19 00:12:59;;;;;;;4.03;2.35;;;11.30;99.90;;;;;;5054745;28;20122;-80
2022/10/19 00:15:24;;;;;;;4.43;1.80;;;11.30;99.90;;;;;;5054983;28;20052;-80
2022/10/19 00:17:50;;;;;;;9.63;2.63;;;11.30;99.90;;;;;;5054650;28;20523;-79
2022/10/19 00:20:16;;;;;;;5.40;1.75;;;11.40;99.90;;;;;;5054653;28;20131;-79
2022/10/19 00:22:41;;;;;;;4.80;2.03;;;11.40;99.90;;;;;;5054540;28;20194;-80
2022/10/19 00:25:07;;;;;;;9.07;2.00;;;11.40;99.90;;;;;;5054228;28;20124;-80
2022/10/19 00:27:34;;;;;;;3.88;1.90;;;11.50;99.90;;;;;;5054103;28;20051;-79
2022/10/19 00:30:00;;;;;;;4.72;1.85;;;11.50;99.90;;;;;;5054266;28;20450;-80
2022/10/19 00:32:26;;;;;;;7.50;2.05;;;11.50;99.90;;;;;;5054476;28;20049;-80
2022/10/19 00:34:51;;;;;;;2.92;2.03;;;11.50;99.90;;;;;;5087077;28;20075;-80
2022/10/19 00:37:17;;;;;;;5.85;1.67;;;11.50;99.90;;;;;;5054025;28;20048;-79
2022/10/19 00:39:43;;;;;;;4.28;2.08;;;11.60;99.90;;;;;;5052749;28;20045;-79
2022/10/19 00:42:11;;;;;;;4.35;1.85;;;11.60;99.90;;;;;;5052703;28;20041;-79
2022/10/19 00:44:37;;;;;;;2.67;1.52;;;11.60;99.90;;;;;;5053756;28;20114;-79
2022/10/19 00:47:07;;;;;;;2.72;1.42;;;11.60;99.90;;;;;;5053740;28;20434;-79
2022/10/19 00:49:36;;;;;;;3.50;1.73;;;11.60;99.90;;;;;;5052728;28;20466;-80
2022/10/19 00:52:11;;;;;;;3.35;1.80;;;11.60;99.90;;;;;;5053652;28;20052;-80
2022/10/19 00:54:39;;;;;;;2.80;1.65;;;11.60;99.90;;;;;;5052890;28;20490;-80
2022/10/19 00:57:06;;;;;;;4.85;2.30;;;11.60;99.90;;;;;;5053507;28;20044;-80
2022/10/19 00:59:33;;;;;;;4.97;2.20;;;11.60;99.90;;;;;;5053322;28;20498;-79
2022/10/19 01:02:00;;;;;;;3.35;1.70;;;11.70;99.90;;;;;;5054643;28;20088;-80
2022/10/19 01:04:28;;;;;;;3.90;1.80;;;11.70;99.90;;;;;;5055210;28;20037;-79
2022/10/19 01:06:54;;;;;;;3.10;1.67;;;11.70;99.90;;;;;;5054877;28;20049;-79
2022/10/19 01:09:20;;;;;;;4.93;1.58;;;11.70;99.90;;;;;;5053368;28;20059;-79
2022/10/19 01:12:01;;;;;;;2.03;1.80;;;11.70;99.90;;;;;;5053382;28;20045;-79
2022/10/19 01:14:27;;;;;;;2.50;1.60;;;11.80;99.90;;;;;;5085662;28;20139;-79
2022/10/19 01:17:10;;;;;;;2.70;1.80;;;11.80;99.90;;;;;;5053137;28;20053;-80
2022/10/19 01:19:55;;;;;;;2.45;1.45;;;11.70;99.90;;;;;;5053760;28;20490;-81
2022/10/19 01:22:39;;;;;;;2.25;1.60;;;11.80;99.90;;;;;;5053091;28;20474;-80
2022/10/19 01:25:20;;;;;;;2.20;1.67;;;11.80;99.90;;;;;;5052867;28;20053;-80
2022/10/19 01:28:00;;;;;;;3.25;2.33;;;11.80;99.90;;;;;;5053618;28;20048;-79
2022/10/19 01:30:56;;;;;;;7.55;1.77;;;11.80;99.90;;;;;;5053093;28;20119;-79
2022/10/19 01:33:27;;;;;;;4.97;2.17;;;11.80;99.90;;;;;;5053864;28;20063;-79
2022/10/19 01:36:21;;;;;;;5.13;1.90;;;11.90;99.90;;;;;;5052718;28;20053;-80
2022/10/19 01:38:50;;;;;;;2.83;1.40;;;11.80;99.90;;;;;;5052875;28;20099;-80
2022/10/19 01:41:39;;;;;;;7.25;2.00;;;11.80;99.90;;;;;;5052700;28;20048;-80
2022/10/19 01:44:20;;;;;;;3.75;1.60;;;11.90;99.90;;;;;;5052666;28;20037;-80
2022/10/19 01:46:59;;;;;;;3.63;1.80;;;11.90;99.90;;;;;;5052679;28;20094;-80
2022/10/19 01:49:41;;;;;;;4.65;1.75;;;11.90;99.90;;;;;;5052726;28;20119;-80
2022/10/19 01:52:12;;;;;;;3.00;1.80;;;11.90;99.90;;;;;;5052582;28;20053;-80
2022/10/19 01:54:43;;;;;;;3.13;1.45;;;11.90;99.90;;;;;;5052554;28;20099;-80
2022/10/19 01:57:12;;;;;;;3.03;1.60;;;11.90;99.90;;;;;;5052696;28;20052;-80
2022/10/19 01:59:38;;;;;;;2.28;1.27;;;12.00;99.90;;;;;;5052232;28;20443;-80
2022/10/19 02:02:08;;;;;;;4.05;1.40;;;11.90;99.90;;;;;;5052802;28;20053;-80
2022/10/19 02:04:35;;;;;;;3.58;1.42;;;12.00;99.90;;;;;;5052700;28;20055;-80
2022/10/19 02:07:02;;;;;;;4.50;1.30;;;12.00;99.90;;;;;;5052351;28;20057;-80
2022/10/19 02:09:28;;;;;;;4.40;1.73;;;12.00;99.90;;;;;;5052464;28;20060;-80
2022/10/19 02:11:58;;;;;;;5.40;2.05;;;12.10;99.90;;;;;;5052280;28;20041;-80
2022/10/19 02:14:30;;;;;;;3.30;1.10;;;12.10;99.90;;;;;;5052428;28;20048;-80
2022/10/19 02:17:06;;;;;;;4.90;1.52;;;12.10;99.90;;;;;;5052271;28;20045;-80
2022/10/19 02:19:33;;;;;;;1.67;1.02;;;12.10;99.90;;;;;;5052987;28;20053;-80
2022/10/19 02:21:59;;;;;;;2.50;1.17;;;12.10;99.90;;;;;;5052334;28;20045;-80
2022/10/19 02:24:25;;;;;;;2.88;1.17;;;12.10;99.90;;;;;;5084296;28;20041;-80
2022/10/19 02:26:51;;;;;;;2.60;1.40;;;12.10;99.90;;;;;;5054338;28;20101;-80
2022/10/19 02:29:17;;;;;;;4.72;1.15;;;12.20;99.90;;;;;;5055664;28;20536;-79
2022/10/19 02:31:44;;;;;;;2.75;1.20;;;12.20;99.90;;;;;;5056299;28;20045;-80
2022/10/19 02:34:11;;;;;;;2.92;1.15;;;12.20;99.90;;;;;;5056279;28;20049;-79
2022/10/19 02:36:36;;;;;;;3.40;1.05;;;12.10;99.90;;;;;;5056344;28;20092;-80
2022/10/19 02:39:03;;;;;;;4.55;1.40;;;12.10;99.90;;;;;;5056607;28;20048;-79
2022/10/19 02:41:59;;;;;;;2.22;0.95;;;12.10;99.90;;;;;;5056137;28;20060;-79
2022/10/19 02:44:29;;;;;;;3.33;1.55;;;12.10;99.90;;;;;;5053013;28;20128;-80
2022/10/19 02:47:11;;;;;;;3.58;1.30;;;12.00;99.90;;;;;;5056511;28;20078;-80
2022/10/19 02:49:38;;;;;;;3.35;1.50;;;12.00;99.90;;;;;;5056477;28;20507;-80
2022/10/19 02:52:07;;;;;;;3.40;1.27;;;12.00;99.90;;;;;;5055987;28;20052;-79
2022/10/19 02:54:33;;;;;;;4.10;1.70;;;12.00;99.90;;;;;;5055863;28;20069;-80
2022/10/19 02:56:59;;;;;;;4.55;1.30;;;12.00;99.90;;;;;;5055919;28;20580;-80
2022/10/19 02:59:25;;;;;;;7.55;2.13;;;12.00;99.90;;;;;;5056078;28;20139;-80
2022/10/19 03:01:51;;;;;;;1.33;1.00;;;11.90;99.90;;;;;;5056260;28;20084;-80
2022/10/19 03:04:17;;;;;;;3.28;1.30;;;11.90;99.90;;;;;;5055742;28;20048;-79
2022/10/19 03:06:43;;;;;;;1.17;1.08;;;11.90;99.90;;;;;;5055890;28;20049;-80
2022/10/19 03:09:09;;;;;;;3.85;1.30;;;11.80;99.90;;;;;;5055691;28;20490;-79
2022/10/19 03:11:35;;;;;;;3.17;1.60;;;11.80;99.90;;;;;;5056238;28;20383;-80
2022/10/19 03:14:00;;;;;;;3.05;2.08;;;11.70;99.90;;;;;;5055927;28;20124;-79
2022/10/19 03:16:26;;;;;;;6.25;1.48;;;11.70;99.90;;;;;;5055642;28;20389;-79
2022/10/19 03:18:53;;;;;;;5.22;1.45;;;11.60;99.90;;;;;;5055466;28;20048;-80
2022/10/19 03:21:18;;;;;;;3.10;1.23;;;11.60;99.90;;;;;;5055498;28;20473;-79
2022/10/19 03:23:44;;;;;;;1.92;1.08;;;11.60;99.90;;;;;;5055328;28;20048;-79
2022/10/19 03:26:13;;;;;;;5.28;1.05;;;11.50;99.90;;;;;;5055902;28;20396;-79
2022/10/19 03:28:39;;;;;;;3.40;1.40;;;11.40;99.90;;;;;;5070730;28;20056;-79
2022/10/19 03:31:05;;;;;;;2.33;0.93;;;11.20;99.90;;;;;;5087785;28;20642;-79
2022/10/19 03:33:31;;;;;;;3.55;1.10;;;11.10;99.90;;;;;;5055150;28;20117;-79
2022/10/19 03:36:21;;;;;;;4.60;1.67;;;11.10;99.90;;;;;;5055147;28;20068;-79
2022/10/19 03:38:50;;;;;;;3.97;1.20;;;11.00;99.90;;;;;;5055444;28;20072;-79
2022/10/19 03:41:16;;;;;;;3.17;1.27;;;10.90;99.90;;;;;;5054992;28;20056;-80
2022/10/19 03:43:42;;;;;;;7.32;1.55;;;10.80;99.90;;;;;;5054693;28;20477;-79
2022/10/19 03:46:08;;;;;;;4.57;1.00;;;10.70;99.90;;;;;;5055044;28;20045;-80
2022/10/19 03:48:34;;;;;;;4.22;1.45;;;10.60;99.90;;;;;;5054866;28;20041;-79
2022/10/19 03:51:01;;;;;;;3.60;1.60;;;10.60;99.90;;;;;;5055345;28;20065;-80
2022/10/19 03:53:26;;;;;;;7.63;2.33;;;10.50;99.90;;;;;;5086887;28;20546;-79
2022/10/19 03:55:59;;;;;;;4.00;1.50;;;10.50;99.90;;;;;;5055379;28;20080;-79
2022/10/19 03:58:24;;;;;;;5.72;1.38;;;10.50;99.90;;;;;;5054828;28;20469;-79
2022/10/19 04:00:50;;;;;;;6.28;2.00;;;10.40;99.90;;;;;;5054273;28;20175;-79
2022/10/19 04:03:15;;;;;;;4.80;1.40;;;10.40;99.90;;;;;;5055969;28;20080;-79
2022/10/19 04:05:41;;;;;;;3.03;1.30;;;10.40;99.90;;;;;;5057958;28;20124;-79
2022/10/19 04:08:07;;;;;;;2.45;1.23;;;10.40;99.90;;;;;;5057693;28;20504;-79
2022/10/19 04:10:33;;;;;;;3.53;1.80;;;10.40;99.90;;;;;;5054910;28;20134;-79
2022/10/19 04:12:58;;;;;;;4.45;1.42;;;10.40;99.90;;;;;;5054515;28;20126;-79
2022/10/19 04:15:24;;;;;;;4.25;1.65;;;10.40;99.90;;;;;;5054485;28;20124;-80
2022/10/19 04:17:49;;;;;;;4.28;1.80;;;10.50;99.90;;;;;;5086749;28;20056;-79
2022/10/19 04:20:15;;;;;;;6.13;1.80;;;10.50;99.90;;;;;;5054351;28;20045;-79
2022/10/19 04:22:41;;;;;;;3.38;1.25;;;10.50;99.90;;;;;;5054708;28;20099;-79
2022/10/19 04:25:09;;;;;;;6.53;1.95;;;10.60;99.90;;;;;;5054734;28;20052;-80
2022/10/19 04:27:35;;;;;;;2.95;1.70;;;10.60;99.90;;;;;;5054291;28;20087;-80
2022/10/19 04:30:01;;;;;;;8.80;3.33;;;10.60;99.90;;;;;;5054186;28;20414;-79
2022/10/19 04:32:26;;;;;;;4.68;1.60;;;10.60;99.90;;;;;;5054127;28;20056;-80
2022/10/19 04:34:52;;;;;;;4.25;1.33;;;10.60;99.90;;;;;;5054483;28;20048;-79
2022/10/19 04:37:18;;;;;;;5.35;1.58;;;10.60;99.90;;;;;;5054081;28;20041;-79
2022/10/19 04:39:43;;;;;;;7.40;2.00;;;10.60;99.90;;;;;;5086447;28;20076;-79
2022/10/19 04:42:09;;;;;;;3.35;1.40;;;10.60;99.90;;;;;;5052551;28;20099;-79
2022/10/19 04:44:35;;;;;;;6.75;1.88;;;10.60;99.90;;;;;;5054250;28;20044;-79
2022/10/19 04:47:00;;;;;;;7.80;2.75;;;10.60;99.90;;;;;;5053908;28;20057;-80
2022/10/19 04:49:26;;;;;;;20.13;2.90;;;10.60;99.90;;;;;;5053340;28;20080;-79
2022/10/19 04:51:52;;;;;;;9.82;4.22;;;10.60;99.90;;;;;;5086783;28;20402;-79
2022/10/19 04:54:17;;;;;;;5.63;2.08;;;10.60;99.90;;;;;;5053824;28;20126;-80
2022/10/19 04:56:43;;;;;;;7.93;2.15;;;10.70;99.90;;;;;;5053694;28;20104;-79
2022/10/19 04:59:09;;;;;;;11.57;2.33;;;10.70;99.90;;;;;;5054091;28;20080;-80
2022/10/19 05:01:35;;;;;;;4.50;1.98;;;10.70;99.90;;;;;;5053809;28;20356;-79
2022/10/19 05:04:01;;;;;;;5.20;1.90;;;10.80;99.90;;;;;;5053849;28;20056;-80
2022/10/19 05:06:28;;;;;;;11.27;2.03;;;10.80;99.90;;;;;;5053410;28;20052;-79
2022/10/19 05:08:55;;;;;;;7.07;2.17;;;10.80;99.90;;;;;;5053285;28;20076;-80
2022/10/19 05:11:20;;;;;;;6.43;2.20;;;10.80;99.90;;;;;;5053368;28;20037;-81
2022/10/19 05:13:47;;;;;;;6.80;1.95;;;10.90;99.90;;;;;;5053541;28;20048;-81
2022/10/19 05:16:18;;;;;;;4.18;1.58;;;10.80;99.90;;;;;;5053393;28;20049;-81
2022/10/19 05:18:54;;;;;;;8.73;1.75;;;10.90;99.90;;;;;;5053630;28;20200;-81
2022/10/19 05:21:21;;;;;;;6.07;1.77;;;10.90;99.90;;;;;;5053659;28;20141;-81
2022/10/19 05:23:51;;;;;;;5.75;2.42;;;11.00;99.90;;;;;;5052926;28;20112;-81
2022/10/19 05:26:19;;;;;;;8.88;2.13;;;11.00;99.90;;;;;;5052645;28;20518;-81
2022/10/19 05:28:49;;;;;;;7.47;2.30;;;11.10;99.90;;;;;;5053260;28;20107;-80
2022/10/19 05:31:17;;;;;;;6.75;2.10;;;11.10;99.90;;;;;;5051893;28;20059;-81
2022/10/19 05:33:43;;;;;;;4.97;1.85;;;11.10;99.90;;;;;;5085147;28;20099;-80
2022/10/19 05:36:13;;;;;;;8.18;2.40;;;11.10;99.90;;;;;;5053264;28;20048;-80
2022/10/19 05:38:40;;;;;;;6.78;2.33;;;11.10;99.90;;;;;;5085160;28;20056;-80
2022/10/19 05:41:05;;;;;;;4.90;1.83;;;11.10;99.90;;;;;;5052694;28;20041;-81
2022/10/19 05:43:31;;;;;;;4.25;1.45;;;11.10;99.90;;;;;;5052579;28;20117;-80
2022/10/19 05:46:01;;;;;;;7.30;2.35;;;11.10;99.90;;;;;;5052733;28;20128;-81
2022/10/19 05:48:31;;;;;;;3.78;1.98;;;11.10;99.90;;;;;;5052524;28;20538;-81
2022/10/19 05:50:57;;;;;;;4.55;2.33;;;11.10;99.90;;;;;;5052880;28;20055;-81
2022/10/19 05:53:23;;;;;;;10.10;2.95;;;11.10;99.90;;;;;;5052720;28;20124;-81
2022/10/19 05:55:48;;;;;;;9.68;2.88;;;11.10;99.90;;;;;;5052026;28;20071;-81
2022/10/19 05:58:14;;;;;;;6.40;2.33;;;11.10;99.90;;;;;;5052325;28;20043;-80
2022/10/19 06:00:40;;;;;;;6.18;1.73;;;11.10;99.90;;;;;;5052269;28;20467;-81
2022/10/19 06:03:05;;;;;;;6.32;2.08;;;11.10;99.90;;;;;;5068575;28;20463;-81
2022/10/19 06:05:31;;;;;;;6.35;2.45;;;11.10;99.90;;;;;;5051586;28;20088;-80
2022/10/19 06:07:56;;;;;;;6.63;2.13;;;11.10;99.90;;;;;;5052331;28;20534;-80
2022/10/19 06:10:22;;;;;;;8.38;1.85;;;11.10;99.90;;;;;;5052267;28;20102;-80
2022/10/19 06:12:48;;;;;;;6.32;2.33;;;11.10;99.90;;;;;;5052252;28;20497;-80
2022/10/19 06:15:14;;;;;;;2.30;1.23;;;11.10;99.90;;;;;;5084502;28;20060;-82
2022/10/19 06:17:39;;;;;;;3.72;1.90;;;11.10;99.90;;;;;;5052247;28;20040;-82
2022/10/19 06:20:05;;;;;;;3.90;1.65;;;10.50;99.90;;;;;;5052589;28;20498;-82
2022/10/19 06:22:31;;;;;;;6.70;2.13;;;11.20;99.90;;;;;;5052536;28;20065;-81
2022/10/19 06:24:57;;;;;;;8.85;2.50;;;11.30;99.90;;;;;;5052330;28;20041;-81
2022/10/19 06:27:22;;;;;;;9.13;2.63;;;11.30;99.90;;;;;;5051967;28;20075;-81
2022/10/19 06:29:48;;;;;;;6.57;2.28;;;11.30;99.90;;;;;;5051432;28;20041;-81
2022/10/19 06:32:14;;;;;;;4.72;2.25;;;11.30;99.90;;;;;;5052254;28;20049;-81
2022/10/19 06:34:39;;;;;;;7.15;2.22;;;11.40;99.90;;;;;;5051739;28;20124;-81
2022/10/19 06:37:05;;;;;;;6.05;2.63;;;11.40;99.90;;;;;;5052208;28;20056;-81
2022/10/19 06:39:31;;;;;;;4.35;2.00;;;11.40;99.90;;;;;;5052333;28;20041;-81
2022/10/19 06:41:56;;;;;;;5.18;2.47;;;11.40;99.90;;;;;;5084746;28;20534;-81
2022/10/19 06:44:22;;;;;;;5.82;2.00;;;11.40;99.90;;;;;;5051968;28;20438;-80
2022/10/19 06:46:48;;;;;;;6.53;2.15;;;11.40;99.90;;;;;;5052162;28;20126;-81
2022/10/19 06:49:14;;;;;;;9.38;2.30;;;11.50;99.90;;;;;;5052002;28;20045;-81
2022/10/19 06:51:39;;;;;;;4.57;2.97;;;11.50;99.90;;;;;;5051992;28;20052;-81
2022/10/19 06:54:05;;;;;;;3.45;1.95;;;11.50;99.90;;;;;;5052025;28;20041;-81
2022/10/19 06:56:31;;;;;;;4.38;1.90;;;11.50;99.90;;;;;;5052282;28;20128;-81
2022/10/19 06:58:57;;;;;;;3.83;1.52;;;11.60;99.90;;;;;;5052024;28;20119;-81
2022/10/19 07:01:24;;;;;;;7.45;4.15;;;11.60;99.90;;;;;;5051974;28;20065;-80
2022/10/19 07:03:54;;;;;;;4.57;1.67;;;11.60;99.90;;;;;;5050865;28;20129;-81
2022/10/19 07:06:21;;;;;;;5.57;2.33;;;11.70;99.90;;;;;;5051349;28;20554;-81
2022/10/19 07:08:47;;;;;;;5.28;1.70;;;11.70;99.90;;;;;;5053077;28;20440;-81
2022/10/19 07:11:18;;;;;;;6.70;1.80;;;11.70;99.90;;;;;;5055987;28;20041;-82
2022/10/19 07:13:43;;;;;;;3.63;1.40;;;11.70;99.90;;;;;;5059359;28;20041;-82
2022/10/19 07:16:12;;;;;;;5.07;1.80;;;11.80;99.90;;;;;;5057378;28;20041;-81
2022/10/19 07:18:39;;;;;;;6.20;2.10;;;11.80;99.90;;;;;;5088030;28;20095;-81
2022/10/19 07:21:07;;;;;;;4.85;1.55;;;11.90;99.90;;;;;;5055318;28;20086;-81
2022/10/19 07:23:35;;;;;;;7.47;1.75;;;11.90;99.90;;;;;;5055172;28;20130;-81
2022/10/19 07:26:12;;;;;;;9.68;1.90;;;11.90;99.90;;;;;;5054579;28;20059;-81
2022/10/19 07:28:40;;;;;;;3.88;1.75;;;12.00;99.90;;;;;;5055601;28;20053;-81
2022/10/19 07:31:08;;;;;;;6.93;2.17;;;12.00;99.90;;;;;;5055033;28;20057;-81
2022/10/19 07:33:34;;;;;;;5.25;1.80;;;12.00;99.90;;;;;;5055171;28;20045;-81
2022/10/19 07:36:01;;;;;;;7.57;2.03;;;12.10;99.90;;;;;;5055061;28;20100;-81
2022/10/19 07:38:29;;;;;;;5.72;2.10;;;12.20;99.90;;;;;;5055118;28;20052;-80
2022/10/19 07:41:24;;;;;;;5.18;1.70;;;12.20;99.90;;;;;;5055079;28;20045;-80
2022/10/19 07:43:51;;;;;;;5.05;1.90;;;12.30;99.90;;;;;;5042223;28;20555;-81
2022/10/19 07:46:20;;;;;;;3.70;1.85;;;12.30;99.90;;;;;;5055408;28;20048;-81
2022/10/19 07:48:46;;;;;;;4.38;1.80;;;12.40;99.90;;;;;;5055496;28;20090;-81
2022/10/19 07:51:13;;;;;;;4.40;1.60;;;12.40;99.90;;;;;;5054876;28;20131;-81
2022/10/19 07:53:40;;;;;;;6.53;2.20;;;12.40;99.90;;;;;;5055225;28;20084;-80
2022/10/19 07:56:15;;;;;;;7.97;1.80;;;12.50;99.90;;;;;;5055102;28;20123;-81
2022/10/19 07:58:41;;;;;;;5.22;1.38;;;12.40;99.90;;;;;;5054422;28;20091;-81
2022/10/19 08:01:08;;;;;;;6.85;1.60;;;12.50;99.90;;;;;;5054983;28;20057;-78
2022/10/19 08:03:35;;;;;;;8.10;1.92;;;12.50;99.90;;;;;;5054551;28;20049;-78
2022/10/19 08:06:05;;;;;;;7.82;1.95;;;12.60;99.90;;;;;;5054819;28;20045;-81
2022/10/19 08:08:31;;;;;;;4.82;1.65;;;12.60;99.90;;;;;;5055026;28;20481;-81
2022/10/19 08:11:04;;;;;;;5.88;1.70;;;12.60;99.90;;;;;;5054920;28;20041;-81
2022/10/19 08:13:30;;;;;;;3.65;1.77;;;12.70;99.90;;;;;;5054643;28;20055;-81
2022/10/19 08:15:56;;;;;;;3.13;1.65;;;12.70;99.90;;;;;;5054534;28;20120;-81
2022/10/19 08:18:22;;;;;;;6.18;2.17;;;12.70;99.90;;;;;;5053347;28;20091;-80
2022/10/19 08:20:48;;;;;;;6.45;1.77;;;12.80;99.90;;;;;;5054720;28;20068;-79
2022/10/19 08:23:15;;;;;;;3.92;1.50;;;12.80;99.90;;;;;;5053575;28;20471;-79
2022/10/19 08:25:40;;;;;;;4.90;1.50;;;12.80;99.90;;;;;;5053723;28;20049;-81
2022/10/19 08:28:06;;;;;;;5.22;1.73;;;12.90;99.90;;;;;;5053337;28;20045;-81
2022/10/19 08:30:34;;;;;;;4.35;1.50;;;13.00;99.90;;;;;;5086884;28;20065;-82
2022/10/19 08:33:00;;;;;;;2.38;1.40;;;13.00;99.90;;;;;;5053933;28;20087;-80
2022/10/19 08:35:26;;;;;;;3.28;2.20;;;13.10;99.90;;;;;;5054374;28;20391;-80
2022/10/19 08:37:51;;;;;;;5.22;2.08;;;13.20;99.90;;;;;;5053959;28;20071;-81
2022/10/19 08:40:22;;;;;;;4.57;1.17;;;13.20;99.90;;;;;;5085926;28;20045;-80
2022/10/19 08:43:01;;;;;;;5.47;1.88;;;13.20;99.90;;;;;;5054543;28;20048;-80
2022/10/19 08:45:43;;;;;;;3.42;1.65;;;13.20;99.90;;;;;;5054053;28;20049;-80
2022/10/19 08:48:17;;;;;;;5.22;1.50;;;13.30;99.90;;;;;;5053973;28;20114;-80
2022/10/19 08:50:44;;;;;;;6.47;2.00;;;13.30;99.90;;;;;;5053854;28;20044;-80
2022/10/19 08:53:19;;;;;;;3.63;1.48;;;13.40;99.90;;;;;;5053543;28;20045;-80
2022/10/19 08:55:59;;;;;;;4.75;1.80;;;13.40;99.90;;;;;;5052422;28;20204;-81
2022/10/19 08:58:55;;;;;;;6.63;1.60;;;13.40;99.90;;;;;;5053448;28;20049;-80
2022/10/19 09:01:36;;;;;;;5.55;1.33;;;13.50;99.90;;;;;;5053104;28;20090;-81
2022/10/19 09:04:13;;;;;;;6.90;1.50;;;13.50;99.90;;;;;;5053557;28;20082;-82
2022/10/19 09:06:59;;;;;;;2.80;1.50;;;13.60;99.90;;;;;;5053754;28;20048;-82
2022/10/19 09:09:29;;;;;;;9.07;1.77;;;13.60;99.90;;;;;;5053218;28;20052;-77
2022/10/19 09:12:02;;;;;;;6.15;1.73;;;13.60;99.90;;;;;;5054032;28;20089;-76
2022/10/19 09:14:35;;;;;;;7.93;2.05;;;13.60;99.90;;;;;;5053240;28;20045;-79
2022/10/19 09:17:09;;;;;;;;;;;13.60;99.90;;;;;;5053874;28;20045;-81
2022/10/19 09:19:35;;;;;;;3.35;1.38;;;13.60;99.90;;;;;;5053318;28;19924;-80
2022/10/19 09:22:07;;;;;;;10.70;2.30;;;13.60;99.90;;;;;;5053157;28;20037;-81
2022/10/19 09:24:49;;;;;;;2.72;1.60;;;13.70;99.90;;;;;;5052317;28;20053;-81
2022/10/19 09:27:28;;;;;;;6.90;2.07;;;13.70;99.90;;;;;;5053301;28;20052;-80
2022/10/19 09:29:56;;;;;;;4.07;1.42;;;13.70;99.90;;;;;;5053181;28;20115;-80
2022/10/19 09:32:31;;;;;;;3.20;1.50;;;13.70;99.90;;;;;;5052836;28;20053;-80
2022/10/19 09:35:01;;;;;;;3.65;1.52;;;13.70;99.90;;;;;;5052951;28;20045;-80
2022/10/19 09:37:31;;;;;;;3.10;1.67;;;13.80;99.90;;;;;;5053579;28;20048;-79
2022/10/19 09:39:57;;;;;;;2.88;1.25;;;13.80;99.90;;;;;;5052270;28;20095;-80
2022/10/19 09:42:35;;;;;;;3.28;1.55;;;13.80;99.90;;;;;;5052788;28;20111;-79
2022/10/19 09:45:28;;;;;;;6.28;2.05;;;13.80;99.90;;;;;;5051389;28;20447;-80
2022/10/19 09:47:54;;;;;;;3.63;1.35;;;13.80;99.90;;;;;;5052804;28;20040;-82
2022/10/19 09:50:24;;;;;;;5.28;1.60;;;13.80;99.90;;;;;;5052876;28;20045;-74
2022/10/19 09:52:55;;;;;;;4.68;2.22;;;13.80;99.90;;;;;;5053056;28;20049;-80
2022/10/19 09:55:38;;;;;;;2.85;1.02;;;13.80;99.90;;;;;;5052364;28;20498;-80
2022/10/19 09:58:12;;;;;;;8.23;2.00;;;13.90;99.90;;;;;;5052294;28;20098;-81
2022/10/19 10:00:45;;;;;;;3.50;1.63;;;14.00;99.90;;;;;;5084621;28;20052;-80
2022/10/19 10:03:31;;;;;;;3.17;1.83;;;13.90;99.90;;;;;;5052457;28;20049;-79
2022/10/19 10:06:09;;;;;;;5.97;1.50;;;14.00;99.90;;;;;;5052500;28;20080;-73
2022/10/19 10:08:38;;;;;;;4.40;2.08;;;14.00;99.90;;;;;;5053086;28;20107;-81
2022/10/19 10:11:11;;;;;;;4.60;1.55;;;14.00;99.90;;;;;;5052313;28;20509;-79
2022/10/19 10:13:43;;;;;;;2.50;1.42;;;14.00;99.90;;;;;;5053032;28;20047;-80
2022/10/19 10:16:13;;;;;;;4.60;1.70;;;13.90;99.90;;;;;;5053615;28;20052;-80
2022/10/19 10:19:02;;;;;;;3.72;1.63;;;14.00;99.90;;;;;;5054831;28;20099;-80
2022/10/19 10:21:33;;;;;;;5.57;1.58;;;14.10;99.90;;;;;;5043267;28;20080;-79
2022/10/19 10:24:16;;;;;;;2.85;1.52;;;14.10;99.90;;;;;;5053489;28;20041;-80
2022/10/19 10:26:50;;;;;;;4.75;1.42;;;14.20;99.90;;;;;;5053218;28;20079;-80
2022/10/19 10:29:21;;;;;;;1.23;1.13;;;14.20;99.90;;;;;;5052695;28;20493;-80
2022/10/19 10:32:07;;;;;;;4.30;1.45;;;14.20;99.90;;;;;;5052923;28;20094;-80
2022/10/19 10:34:46;;;;;;;3.67;1.20;;;14.30;99.90;;;;;;5052215;28;20070;-79
2022/10/19 10:37:37;;;;;;;4.53;1.60;;;14.30;99.90;;;;;;5052241;28;20088;-79
2022/10/19 10:40:05;;;;;;;4.22;1.30;;;14.30;99.90;;;;;;5052031;28;20372;-79
2022/10/19 10:42:50;;;;;;;2.20;1.40;;;14.30;99.90;;;;;;5052143;28;20092;-78
2022/10/19 10:45:22;;;;;;;9.02;1.50;;;14.20;99.90;;;;;;5051050;28;20045;-79
2022/10/19 10:47:48;;;;;;;5.32;2.30;;;14.30;99.90;;;;;;5054236;28;20114;-79
2022/10/19 10:50:40;;;;;;;3.15;1.30;;;14.30;99.90;;;;;;5056085;28;20451;-79
2022/10/19 10:53:27;;;;;;;2.72;1.67;;;14.40;99.90;;;;;;5052747;28;20131;-78
2022/10/19 10:55:56;;;;;;;6.15;1.88;;;14.50;99.90;;;;;;5056195;28;20103;-79
2022/10/19 10:58:46;;;;;;;6.85;1.58;;;14.50;99.90;;;;;;5055847;28;20045;-78
2022/10/19 11:01:21;;;;;;;7.20;1.50;;;14.50;99.90;;;;;;5055582;28;20431;-79
2022/10/19 11:03:58;;;;;;;3.40;1.70;;;14.50;99.90;;;;;;5056250;28;20072;-78
2022/10/19 11:06:25;;;;;;;6.85;1.85;;;14.50;99.90;;;;;;5055817;28;20060;-79
2022/10/19 11:08:56;;;;;;;5.63;1.88;;;14.50;99.90;;;;;;5055730;28;20107;-78
2022/10/19 11:11:31;;;;;;;4.00;1.33;;;14.50;99.90;;;;;;5055929;28;20049;-79
2022/10/19 11:14:18;;;;;;;2.35;1.45;;;14.50;99.90;;;;;;5055766;28;20041;-78
2022/10/19 11:16:45;;;;;;;4.53;2.25;;;14.50;99.90;;;;;;5056190;28;20048;-79
2022/10/19 11:19:34;;;;;;;1.40;1.25;;;14.60;99.90;;;;;;5055072;28;20434;-79
2022/10/19 11:22:05;;;;;;;5.55;1.60;;;14.70;99.90;;;;;;5055748;28;20049;-80
2022/10/19 11:24:46;;;;;;;6.60;2.30;;;14.80;99.90;;;;;;5055320;28;20045;-78
2022/10/19 11:27:28;;;;;;;5.65;1.63;;;14.80;99.90;;;;;;5055419;28;20530;-80
2022/10/19 11:30:07;;;;;;;11.77;2.10;;;14.80;99.90;;;;;;5055772;28;20060;-78
2022/10/19 11:32:45;;;;;;;3.00;2.10;;;14.80;99.90;;;;;;5055694;28;20045;-79
2022/10/19 11:35:34;;;;;;;3.45;1.60;;;14.80;99.90;;;;;;5055581;28;20519;-78
2022/10/19 11:38:24;;;;;;;4.47;2.40;;;14.80;99.90;;;;;;5055631;28;20122;-78
2022/10/19 11:41:14;;;;;;;5.72;1.95;;;14.90;99.90;;;;;;5055419;28;20041;-79
2022/10/19 11:43:45;;;;;;;5.45;2.13;;;15.00;99.90;;;;;;5055796;28;20037;-78
2022/10/19 11:46:24;;;;;;;3.42;1.77;;;15.00;99.90;;;;;;5055068;28;20056;-79
2022/10/19 11:49:10;;;;;;;5.40;1.85;;;15.00;99.90;;;;;;5054978;28;20128;-79
2022/10/19 11:52:10;;;;;;;6.45;2.13;;;15.00;99.90;;;;;;5054940;28;20045;-78
2022/10/19 11:54:51;;;;;;;4.85;2.08;;;14.90;99.90;;;;;;5054859;28;20098;-78
2022/10/19 11:57:34;;;;;;;3.65;2.05;;;14.90;99.90;;;;;;5055297;28;20052;-78
2022/10/19 12:00:18;;;;;;;5.55;2.17;;;14.90;99.90;;;;;;5054682;28;20071;-78
2022/10/19 12:02:57;;;;;;;7.15;2.10;;;14.90;99.90;;;;;;5054644;28;20060;-78
2022/10/19 12:05:30;;;;;;;3.03;1.30;;;14.80;99.90;;;;;;5054628;28;20044;-78
2022/10/19 12:08:06;;;;;;;8.63;2.22;;;14.80;99.90;;;;;;5055169;28;20045;-78
2022/10/19 12:10:45;;;;;;;3.40;1.60;;;14.80;99.90;;;;;;5054803;28;20114;-79
2022/10/19 12:13:19;;;;;;;6.70;1.85;;;14.90;99.90;;;;;;5054984;28;20049;-79
2022/10/19 12:15:54;;;;;;;6.57;2.05;;;14.80;99.90;;;;;;5054396;28;20041;-78
2022/10/19 12:18:30;;;;;;;5.75;1.50;;;14.70;99.90;;;;;;5054497;28;20045;-78
2022/10/19 12:20:59;;;;;;;2.92;1.90;;;14.60;99.90;;;;;;5054433;28;20055;-78
2022/10/19 12:23:33;;;;;;;4.65;1.90;;;14.50;99.90;;;;;;5054215;28;20091;-78
2022/10/19 12:26:00;;;;;;;;;;;14.40;99.90;;;;;;5054228;28;20049;-78
2022/10/19 12:28:31;;;;;;;3.30;1.88;;;14.20;99.90;;;;;;5054206;28;19920;-78
2022/10/19 12:30:59;;;;;;;3.13;1.65;;;14.20;99.90;;;;;;5070133;28;20053;-78
2022/10/19 12:34:01;;;;;;;2.40;1.60;;;14.20;99.90;;;;;;5054633;28;20188;-78
2022/10/19 12:36:32;;;;;;;1.95;1.60;;;14.30;99.90;;;;;;5054690;28;20118;-78
2022/10/19 12:39:16;;;;;;;4.90;1.73;;;14.30;99.90;;;;;;5053924;28;20040;-79
2022/10/19 12:41:51;;;;;;;3.42;1.48;;;14.40;99.90;;;;;;5054435;28;20069;-78
2022/10/19 12:44:36;;;;;;;2.53;1.45;;;14.50;99.90;;;;;;5055827;28;20041;-77
2022/10/19 12:47:16;;;;;;;6.78;1.52;;;14.50;99.90;;;;;;5053084;28;20064;-77
2022/10/19 12:49:43;;;;;;;2.88;1.85;;;14.50;99.90;;;;;;5053796;28;20049;-78
2022/10/19 12:52:09;;;;;;;4.45;1.52;;;14.60;99.90;;;;;;5053350;28;20052;-78
2022/10/19 12:54:38;;;;;;;5.00;1.48;;;14.70;99.90;;;;;;5053421;28;20505;-78
2022/10/19 12:57:28;;;;;;;2.97;1.23;;;14.90;99.90;;;;;;5054194;28;20045;-78
2022/10/19 13:00:05;;;;;;;4.20;1.40;;;15.00;99.90;;;;;;5053779;28;20052;-78
2022/10/19 13:02:34;;;;;;;2.15;1.58;;;15.10;99.90;;;;;;5053930;28;20065;-79
2022/10/19 13:05:00;;;;;;;5.63;1.42;;;15.10;99.90;;;;;;5053937;28;20048;-77
2022/10/19 13:07:34;;;;;;;3.10;1.73;;;15.00;99.90;;;;;;5053443;28;20053;-78